Time;durP1;ratioP1;P1;durP2;ratioP2;P2;SDS_P1;SDS_P2;PMS_P1;PMS_P2;Temp;Humidity;BMP_temperature;BMP_pressure;BME280_temperature;BME280_humidity;BME280_pressure;Samples;Min_cycle;Max_cycle;Signal;HPM_P1;HPM_P2
2022/09/04 00:01:48;;;;;;;4.03;3.60;;;;;;;18.24;69.08;99455.16;4987781;28;20947;-74
2022/09/04 00:04:13;;;;;;;5.07;3.17;;;;;;;18.23;69.00;99460.66;4985703;28;20620;-74
2022/09/04 00:06:51;;;;;;;3.33;3.03;;;;;;;18.17;69.42;99455.91;4985998;28;20939;-73
2022/09/04 00:09:55;;;;;;;4.60;3.30;;;;;;;18.05;69.64;99460.63;4991583;28;20212;-74
2022/09/04 00:12:27;;;;;;;5.87;3.67;;;;;;;17.99;69.70;99458.56;4968046;28;21277;-74
2022/09/04 00:14:57;;;;;;;2.83;2.63;;;;;;;17.98;69.83;99460.34;4981952;28;20624;-74
2022/09/04 00:17:31;;;;;;;4.40;2.83;;;;;;;17.97;70.01;99458.69;4984848;28;21021;-73
2022/09/04 00:20:01;;;;;;;4.20;3.17;;;;;;;17.96;69.91;99459.69;4982922;28;20461;-74
2022/09/04 00:22:52;;;;;;;3.90;2.83;;;;;;;17.93;69.92;99452.03;4983555;28;20748;-74
2022/09/04 00:25:24;;;;;;;3.97;3.27;;;;;;;17.89;70.17;99456.78;4991430;28;20460;-74
2022/09/04 00:27:58;;;;;;;3.97;3.38;;;;;;;17.87;70.15;99466.69;4980293;28;20472;-73
2022/09/04 00:30:23;;;;;;;3.57;2.67;;;;;;;17.87;70.13;99472.03;4995708;28;20216;-74
2022/09/04 00:33:06;;;;;;;4.70;2.77;;;;;;;17.89;69.96;99470.06;4984954;28;20451;-73
2022/09/04 00:35:36;;;;;;;3.72;2.60;;;;;;;17.90;69.99;99460.25;4978117;28;22407;-74
2022/09/04 00:38:08;;;;;;;15.55;3.92;;;;;;;17.91;69.95;99467.28;4972484;28;20259;-74
2022/09/04 00:40:46;;;;;;;4.30;3.33;;;;;;;17.89;70.12;99463.91;4961339;28;20212;-73
2022/09/04 00:43:28;;;;;;;3.65;3.03;;;;;;;17.83;69.97;99469.81;4971864;28;20480;-74
2022/09/04 00:46:08;;;;;;;4.03;3.30;;;;;;;17.80;70.41;99475.44;4973863;28;20195;-73
2022/09/04 00:48:52;;;;;;;5.17;3.20;;;;;;;17.79;70.43;99479.06;4981858;28;20761;-74
2022/09/04 00:51:42;;;;;;;6.30;2.33;;;;;;;17.76;70.45;99480.16;4993510;28;20460;-74
2022/09/04 00:54:25;;;;;;;3.25;2.63;;;;;;;17.73;70.45;99484.94;4987950;28;20494;-74
2022/09/04 00:57:15;;;;;;;4.57;2.90;;;;;;;17.70;70.55;99489.56;4988493;28;20256;-74
2022/09/04 01:00:03;;;;;;;4.23;3.27;;;;;;;17.69;70.47;99490.53;4983060;28;20469;-74
2022/09/04 01:02:47;;;;;;;3.30;3.00;;;;;;;17.68;70.65;99502.13;4999782;28;20464;-74
2022/09/04 01:05:56;;;;;;;11.70;4.20;;;;;;;17.65;70.41;99493.63;5002602;23;20258;-79
2022/09/04 01:08:46;;;;;;;4.32;3.22;;;;;;;17.63;70.31;99492.94;4986318;28;20674;-79
2022/09/04 01:11:40;;;;;;;3.93;3.23;;;;;;;17.58;70.61;99492.53;4986435;28;20217;-79
2022/09/04 01:14:26;;;;;;;3.78;3.05;;;;;;;17.56;70.71;99498.00;4985142;28;20495;-79
2022/09/04 01:17:24;;;;;;;3.60;2.35;;;;;;;17.56;70.47;99492.69;4968128;28;20218;-79
2022/09/04 01:20:03;;;;;;;2.87;2.67;;;;;;;17.55;70.71;99492.81;4986997;28;20236;-79
2022/09/04 01:23:14;;;;;;;4.37;3.30;;;;;;;17.56;70.59;99492.69;4986811;28;20747;-79
2022/09/04 01:26:08;;;;;;;3.35;3.05;;;;;;;17.59;70.43;99496.88;4983762;28;20487;-79
2022/09/04 01:28:59;;;;;;;3.28;2.33;;;;;;;17.57;70.40;99506.81;4981770;28;21243;-79
2022/09/04 01:31:36;;;;;;;3.58;3.28;;;;;;;17.56;70.76;99513.09;4985420;28;20561;-79
2022/09/04 01:34:11;;;;;;;2.97;2.77;;;;;;;17.51;70.85;99515.34;4986608;28;20328;-79
2022/09/04 01:36:52;;;;;;;3.40;3.00;;;;;;;17.46;70.89;99513.94;4982711;28;20478;-79
2022/09/04 01:39:22;;;;;;;2.78;2.58;;;;;;;17.43;70.96;99514.25;4984711;28;20588;-79
2022/09/04 01:42:11;;;;;;;4.17;3.73;;;;;;;17.44;70.90;99517.72;4984903;28;20280;-79
2022/09/04 01:44:36;;;;;;;3.70;2.33;;;;;;;17.42;70.71;99512.59;4982921;28;21185;-79
2022/09/04 01:47:08;;;;;;;3.40;2.73;;;;;;;17.42;70.90;99515.25;4983889;28;20723;-79
2022/09/04 01:49:42;;;;;;;5.93;3.42;;;;;;;17.42;70.82;99525.03;4983874;28;20478;-79
2022/09/04 01:52:24;;;;;;;4.63;2.70;;;;;;;17.43;70.73;99526.69;4984518;28;20212;-79
2022/09/04 01:55:17;;;;;;;3.15;2.85;;;;;;;17.43;70.64;99524.88;4982300;28;20491;-79
2022/09/04 01:57:55;;;;;;;3.78;3.08;;;;;;;17.42;70.56;99509.09;4986370;28;20674;-79
2022/09/04 02:00:24;;;;;;;3.58;2.70;;;;;;;17.40;70.56;99519.84;4986892;28;20339;-79
2022/09/04 02:02:55;;;;;;;5.90;3.00;;;;;;;17.38;70.65;99516.50;4987265;28;20292;-79
2022/09/04 02:05:30;;;;;;;3.70;2.80;;;;;;;17.35;70.78;99515.94;4985722;28;20500;-79
2022/09/04 02:08:11;;;;;;;4.93;3.45;;;;;;;17.31;70.76;99525.16;4984918;28;22928;-79
2022/09/04 02:10:55;;;;;;;3.13;2.78;;;;;;;17.30;70.99;99520.84;4987319;28;20220;-79
2022/09/04 02:13:52;;;;;;;6.13;2.88;;;;;;;17.31;70.84;99531.34;4986320;28;20528;-79
2022/09/04 02:16:44;;;;;;;3.50;2.03;;;;;;;17.31;70.76;99528.69;4985524;28;20235;-79
2022/09/04 02:19:28;;;;;;;3.63;2.53;;;;;;;17.30;70.88;99532.31;5002511;28;20577;-79
2022/09/04 02:21:53;;;;;;;2.83;2.63;;;;;;;17.32;70.77;99527.69;4988040;28;20215;-79
2022/09/04 02:24:29;;;;;;;3.10;2.80;;;;;;;17.33;70.80;99524.03;4984358;28;20289;-79
2022/09/04 02:27:04;;;;;;;3.50;3.10;;;;;;;17.34;70.73;99522.25;4985512;28;20234;-79
2022/09/04 02:29:43;;;;;;;4.97;2.90;;;;;;;17.34;70.71;99522.25;4987764;28;20268;-79
2022/09/04 02:32:21;;;;;;;4.80;2.45;;;;;;;17.35;70.57;99522.09;4988196;28;20606;-79
2022/09/04 02:35:00;;;;;;;3.10;2.50;;;;;;;17.31;70.57;99526.03;4985373;28;20290;-79
2022/09/04 02:37:44;;;;;;;2.45;2.25;;;;;;;17.28;70.73;99523.63;4980076;28;20280;-79
2022/09/04 02:40:24;;;;;;;3.60;2.55;;;;;;;17.25;70.80;99519.47;4982012;28;20206;-79
2022/09/04 02:43:02;;;;;;;4.85;2.13;;;;;;;17.24;70.69;99523.09;4985254;28;20211;-79
2022/09/04 02:45:40;;;;;;;2.55;2.35;;;;;;;17.22;70.88;99524.22;4984497;28;20269;-79
2022/09/04 02:48:34;;;;;;;3.35;2.40;;;;;;;17.19;70.80;99535.94;4978027;28;20216;-79
2022/09/04 02:51:18;;;;;;;2.75;2.55;;;;;;;17.18;70.81;99542.25;4985844;28;20244;-79
2022/09/04 02:54:09;;;;;;;3.80;2.90;;;;;;;17.16;70.91;99536.25;4983966;28;20233;-79
2022/09/04 02:56:54;;;;;;;3.72;2.70;;;;;;;17.14;70.83;99532.03;4986329;28;20419;-79
2022/09/04 02:59:36;;;;;;;4.05;2.72;;;;;;;17.12;70.96;99541.97;4985010;28;20204;-79
2022/09/04 03:02:04;;;;;;;4.28;2.60;;;;;;;17.09;70.75;99543.06;4986036;28;20716;-79
2022/09/04 03:04:49;;;;;;;3.83;2.67;;;;;;;17.03;71.12;99544.47;4986530;28;20249;-79
2022/09/04 03:07:38;;;;;;;5.22;2.70;;;;;;;17.00;71.24;99539.47;4996816;28;20998;-79
2022/09/04 03:10:16;;;;;;;3.05;2.75;;;;;;;16.96;71.35;99543.38;4983831;28;20887;-79
2022/09/04 03:12:55;;;;;;;3.45;3.15;;;;;;;16.97;71.27;99541.56;4986302;28;20267;-79
2022/09/04 03:15:42;;;;;;;4.75;2.83;;;;;;;16.98;71.41;99543.22;4985337;28;20299;-79
2022/09/04 03:18:45;;;;;;;3.28;2.97;;;;;;;16.97;71.38;99539.75;4983949;28;20294;-79
2022/09/04 03:21:29;;;;;;;3.72;2.90;;;;;;;16.97;71.31;99538.91;4984156;28;20220;-79
2022/09/04 03:24:03;;;;;;;3.08;2.58;;;;;;;16.99;71.10;99550.22;4983367;28;20326;-79
2022/09/04 03:26:34;;;;;;;3.45;2.90;;;;;;;17.01;71.26;99540.28;4986536;28;20193;-79
2022/09/04 03:29:36;;;;;;;7.32;3.42;;;;;;;17.01;71.10;99549.13;4980601;28;20209;-79
2022/09/04 03:32:20;;;;;;;4.80;3.63;;;;;;;17.00;71.10;99546.59;4969317;28;20246;-80
2022/09/04 03:35:05;;;;;;;4.75;3.25;;;;;;;16.96;70.99;99540.72;4981131;28;20229;-79
2022/09/04 03:37:40;;;;;;;2.83;2.20;;;;;;;16.91;71.21;99548.28;4985438;28;20212;-80
2022/09/04 03:40:36;;;;;;;2.70;2.50;;;;;;;16.90;71.30;99543.09;4978841;28;20230;-80
2022/09/04 03:43:23;;;;;;;2.38;2.17;;;;;;;16.90;71.22;99541.28;4977424;28;20305;-80
2022/09/04 03:46:10;;;;;;;2.63;2.42;;;;;;;16.88;71.29;99551.22;4973664;28;20207;-80
2022/09/04 03:48:43;;;;;;;3.30;2.50;;;;;;;16.86;71.38;99549.66;4974464;28;20574;-81
2022/09/04 03:51:52;;;;;;;3.10;2.30;;;;;;;16.84;71.28;99555.09;4975662;28;20212;-80
2022/09/04 03:54:41;;;;;;;3.85;2.47;;;;;;;16.83;71.33;99571.16;4976229;28;20279;-80
2022/09/04 03:57:34;;;;;;;1.70;1.55;;;;;;;16.76;71.35;99566.38;4975477;28;20784;-80
2022/09/04 04:00:18;;;;;;;1.95;1.80;;;;;;;16.67;71.42;99567.19;4986005;28;20554;-80
2022/09/04 04:03:12;;;;;;;2.65;1.90;;;;;;;16.62;71.54;99573.91;4986727;28;20479;-80
2022/09/04 04:06:28;;;;;;;1.90;1.75;;;;;;;16.55;71.43;99579.75;4987033;28;20637;-80
2022/09/04 04:09:31;;;;;;;2.25;2.05;;;;;;;16.48;71.61;99583.91;4914092;29;20228;-80
2022/09/04 04:12:11;;;;;;;2.70;1.63;;;;;;;16.46;71.54;99585.84;4989687;28;20231;-80
2022/09/04 04:15:05;;;;;;;2.97;2.30;;;;;;;16.47;71.51;99584.91;4989824;28;20227;-80
2022/09/04 04:17:52;;;;;;;6.18;2.10;;;;;;;16.49;71.52;99584.75;4992126;28;20345;-80
2022/09/04 04:20:35;;;;;;;2.92;2.15;;;;;;;16.51;71.42;99585.47;4989534;28;20191;-80
2022/09/04 04:23:25;;;;;;;2.63;2.42;;;;;;;16.54;71.54;99587.84;4989846;28;20216;-80
2022/09/04 04:26:39;;;;;;;2.97;2.72;;;;;;;16.53;71.55;99581.69;4988211;28;20209;-81
2022/09/04 04:29:24;;;;;;;2.78;2.47;;;;;;;16.53;71.61;99592.31;4980689;28;20224;-80
2022/09/04 04:32:12;;;;;;;5.38;3.67;;;;;;;16.54;71.70;99593.13;4988483;28;20208;-80
2022/09/04 04:35:07;;;;;;;3.13;2.65;;;;;;;16.55;71.63;99593.00;4987398;28;20247;-79
2022/09/04 04:37:55;;;;;;;3.22;2.92;;;;;;;16.58;71.63;99590.09;4990532;28;20678;-80
2022/09/04 04:40:45;;;;;;;3.83;3.22;;;;;;;16.58;71.48;99600.69;4985206;28;20210;-80
2022/09/04 04:43:22;;;;;;;3.10;2.40;;;;;;;16.59;71.55;99612.97;4985911;28;20675;-80
2022/09/04 04:45:58;;;;;;;4.30;3.38;;;;;;;16.59;71.50;99620.09;4983782;28;20299;-80
2022/09/04 04:48:45;;;;;;;3.30;3.00;;;;;;;16.60;71.53;99619.94;4987877;28;20261;-80
2022/09/04 04:51:39;;;;;;;3.17;2.83;;;;;;;16.60;71.46;99619.94;4986959;28;20213;-80
2022/09/04 04:54:24;;;;;;;6.13;2.97;;;;;;;16.64;71.47;99622.34;4982459;28;20232;-80
2022/09/04 04:57:03;;;;;;;3.40;3.10;;;;;;;16.64;71.40;99627.66;4985477;28;20229;-80
2022/09/04 04:59:35;;;;;;;4.07;2.80;;;;;;;16.58;71.39;99632.50;4985917;28;21087;-80
2022/09/04 05:02:19;;;;;;;3.20;2.85;;;;;;;16.53;71.50;99632.06;4983370;28;20208;-80
2022/09/04 05:05:01;;;;;;;4.30;3.90;;;;;;;16.48;71.55;99636.09;4985580;28;20593;-80
2022/09/04 05:07:40;;;;;;;3.08;2.78;;;;;;;16.40;71.89;99642.09;5000981;28;20215;-80
2022/09/04 05:10:19;;;;;;;3.65;3.35;;;;;;;16.41;71.80;99646.41;4986345;28;20207;-80
2022/09/04 05:13:11;;;;;;;3.47;2.97;;;;;;;16.53;71.69;99649.81;4985423;28;20202;-80
2022/09/04 05:15:42;;;;;;;3.20;2.85;;;;;;;16.70;71.07;99651.78;4986622;28;20271;-80
2022/09/04 05:18:30;;;;;;;6.43;2.95;;;;;;;16.78;70.66;99654.63;4984204;28;20211;-80
2022/09/04 05:21:37;;;;;;;2.60;2.40;;;;;;;16.83;70.32;99658.72;4990226;28;20212;-81
2022/09/04 05:24:19;;;;;;;3.03;2.25;;;;;;;16.79;70.09;99655.47;4960594;28;20381;-80
2022/09/04 05:26:53;;;;;;;2.70;2.42;;;;;;;16.74;70.26;99658.53;4988624;28;20255;-80
2022/09/04 05:29:31;;;;;;;2.05;1.85;;;;;;;16.69;70.44;99665.19;4991001;28;20236;-80
2022/09/04 05:32:24;;;;;;;2.95;2.58;;;;;;;16.58;70.58;99672.28;4997674;28;20211;-80
2022/09/04 05:34:52;;;;;;;3.63;2.55;;;;;;;16.52;70.79;99672.81;5005272;28;20226;-80
2022/09/04 05:37:36;;;;;;;2.47;2.20;;;;;;;16.48;70.83;99681.19;5005604;28;20224;-80
2022/09/04 05:40:26;;;;;;;3.00;2.72;;;;;;;16.50;71.06;99684.53;4994782;28;20240;-80
2022/09/04 05:43:18;;;;;;;2.30;2.10;;;;;;;16.57;70.86;99683.84;4995787;28;20230;-80
2022/09/04 05:46:03;;;;;;;6.97;5.43;;;;;;;16.67;70.58;99694.50;4996044;28;20228;-80
2022/09/04 05:49:21;;;;;;;6.18;5.35;;;;;;;16.73;70.50;99687.81;4987007;28;20848;-80
2022/09/04 05:52:10;;;;;;;6.20;4.78;;;;;;;16.77;70.49;99690.13;4970527;28;20755;-80
2022/09/04 05:54:56;;;;;;;5.68;4.13;;;;;;;16.86;70.43;99692.94;4987818;28;20236;-80
2022/09/04 05:57:35;;;;;;;4.82;4.10;;;;;;;17.15;70.03;99699.13;4983612;28;20204;-80
2022/09/04 06:00:21;;;;;;;10.13;5.75;;;;;;;17.92;68.50;99686.84;4986496;28;20201;-80
2022/09/04 06:03:10;;;;;;;5.18;4.70;;;;;;;18.79;66.15;99683.03;4989657;28;20241;-81
2022/09/04 06:05:42;;;;;;;4.83;4.37;;;;;;;19.55;64.05;99682.69;4989235;28;20266;-80
2022/09/04 06:08:35;;;;;;;3.20;2.90;;;;;;;20.22;62.47;99690.16;4979468;28;20643;-80
2022/09/04 06:11:36;;;;;;;3.20;2.90;;;;;;;20.81;60.91;99682.31;4980506;28;20453;-81
2022/09/04 06:14:34;;;;;;;3.00;2.63;;;;;;;21.34;59.58;99681.94;4984224;28;20486;-80
2022/09/04 06:17:34;;;;;;;3.80;2.83;;;;;;;21.94;57.93;99674.59;4969632;28;20580;-80
2022/09/04 06:20:09;;;;;;;3.20;2.30;;;;;;;22.51;56.86;99677.16;4987678;28;20421;-81
2022/09/04 06:22:56;;;;;;;2.57;2.37;;;;;;;23.09;55.18;99677.78;4989697;28;20472;-81
2022/09/04 06:25:46;;;;;;;3.40;2.43;;;;;;;23.47;53.94;99675.16;4987929;28;20453;-81
2022/09/04 06:28:49;;;;;;;3.23;2.90;;;;;;;23.54;53.44;99671.56;4985457;28;20838;-80
2022/09/04 06:31:18;;;;;;;3.37;3.07;;;;;;;23.23;53.90;99678.84;4986206;28;20523;-80
2022/09/04 06:34:04;;;;;;;3.20;2.90;;;;;;;22.77;54.66;99678.75;4986767;28;20501;-81
2022/09/04 06:36:44;;;;;;;2.40;2.20;;;;;;;22.23;55.92;99682.94;4988936;28;20458;-81
2022/09/04 06:39:34;;;;;;;2.80;2.60;;;;;;;21.57;57.14;99690.16;4986282;28;20494;-80
2022/09/04 06:42:26;;;;;;;2.90;2.60;;;;;;;21.08;58.29;99694.56;4974560;28;20487;-83
2022/09/04 06:45:10;;;;;;;2.70;2.50;;;;;;;20.81;59.01;99701.81;4990435;28;20431;-82
2022/09/04 06:47:51;;;;;;;4.40;2.90;;;;;;;20.49;60.16;99703.31;4989034;28;20410;-82
2022/09/04 06:50:33;;;;;;;4.50;2.77;;;;;;;20.29;60.49;99709.88;4988116;28;20915;-82
2022/09/04 06:53:17;;;;;;;3.33;2.90;;;;;;;20.13;61.07;99710.63;4988626;28;20417;-82
2022/09/04 06:56:11;;;;;;;3.30;2.67;;;;;;;19.99;61.61;99720.03;4989246;28;20518;-83
2022/09/04 06:59:13;;;;;;;3.77;3.37;;;;;;;19.87;62.16;99721.25;4985839;28;20472;-82
2022/09/04 07:01:59;;;;;;;3.13;2.83;;;;;;;19.81;62.37;99720.03;4986489;28;20414;-82
2022/09/04 07:04:43;;;;;;;4.70;2.57;;;;;;;19.79;62.48;99715.84;5048093;23;20493;-75
2022/09/04 07:07:25;;;;;;;3.30;2.80;;;;;;;19.77;62.84;99720.53;4978080;28;20576;-73
2022/09/04 07:09:56;;;;;;;2.87;2.67;;;;;;;19.77;62.99;99723.19;4983032;28;20446;-73
2022/09/04 07:12:51;;;;;;;3.00;2.70;;;;;;;19.78;63.32;99719.53;4982889;28;20422;-73
2022/09/04 07:15:31;;;;;;;4.70;3.20;;;;;;;19.84;63.31;99721.56;4966844;28;20476;-73
2022/09/04 07:18:14;;;;;;;8.40;3.23;;;;;;;19.86;63.59;99730.25;4973155;28;21050;-73
2022/09/04 07:21:02;;;;;;;8.10;3.80;;;;;;;19.86;63.80;99723.09;4969229;28;20421;-73
2022/09/04 07:23:51;;;;;;;6.03;3.30;;;;;;;19.87;63.85;99724.78;4965361;28;20865;-73
2022/09/04 07:26:32;;;;;;;10.53;2.80;;;;;;;19.94;63.91;99735.66;4974840;28;20990;-73
2022/09/04 07:29:35;;;;;;;3.40;3.10;;;;;;;20.41;62.97;99737.97;4957158;28;20486;-73
2022/09/04 07:32:29;;;;;;;3.50;3.07;;;;;;;21.41;60.49;99739.09;4960090;28;20759;-73
2022/09/04 07:35:03;;;;;;;3.13;2.83;;;;;;;22.39;57.74;99735.59;4951530;28;20465;-73
2022/09/04 07:37:45;;;;;;;6.20;2.57;;;;;;;23.32;55.08;99731.38;4973198;28;20426;-73
2022/09/04 07:40:23;;;;;;;2.63;2.43;;;;;;;24.24;52.94;99731.34;4971057;28;20578;-73
2022/09/04 07:43:02;;;;;;;2.47;2.27;;;;;;;25.18;50.66;99739.69;4970273;28;20447;-73
2022/09/04 07:45:35;;;;;;;2.50;2.30;;;;;;;26.01;48.56;99734.75;4965967;28;20551;-74
2022/09/04 07:48:09;;;;;;;3.80;2.70;;;;;;;26.65;46.81;99737.28;4974315;28;20788;-74
2022/09/04 07:50:44;;;;;;;5.73;2.60;;;;;;;26.99;45.58;99737.44;4969539;28;21196;-73
2022/09/04 07:53:20;;;;;;;4.00;2.80;;;;;;;27.30;44.84;99729.72;4968103;28;20448;-73
2022/09/04 07:55:51;;;;;;;4.80;3.57;;;;;;;27.58;44.29;99731.41;4972269;28;20447;-73
2022/09/04 07:58:43;;;;;;;5.80;3.00;;;;;;;27.83;43.41;99728.97;4965595;28;20806;-73
2022/09/04 08:01:25;;;;;;;3.03;2.83;;;;;;;28.01;43.16;99729.19;4967847;28;20446;-74
2022/09/04 08:03:59;;;;;;;3.03;2.70;;;;;;;28.26;42.53;99738.53;4968747;28;20441;-74
2022/09/04 08:06:44;;;;;;;2.90;2.70;;;;;;;28.59;41.48;99738.47;4968354;28;20537;-73
2022/09/04 08:09:36;;;;;;;3.67;3.23;;;;;;;28.88;40.53;99729.03;4974927;28;20454;-73
2022/09/04 08:12:29;;;;;;;3.23;2.93;;;;;;;29.36;40.07;99744.03;4969434;28;20885;-73
2022/09/04 08:15:13;;;;;;;2.73;2.53;;;;;;;29.62;39.21;99734.91;4971699;28;20490;-73
2022/09/04 08:18:00;;;;;;;3.50;3.20;;;;;;;29.61;39.22;99738.66;4966189;28;21016;-73
2022/09/04 08:20:31;;;;;;;2.90;2.70;;;;;;;29.50;39.47;99741.03;4967670;28;20451;-73
2022/09/04 08:23:23;;;;;;;3.77;2.60;;;;;;;29.46;39.06;99737.09;4949100;28;20448;-73
2022/09/04 08:26:00;;;;;;;2.67;2.47;;;;;;;29.56;39.35;99748.25;4965305;28;20494;-74
2022/09/04 08:28:47;;;;;;;3.50;2.63;;;;;;;29.68;38.90;99747.63;4975450;28;20443;-74
2022/09/04 08:31:29;;;;;;;6.10;2.77;;;;;;;29.87;38.61;99745.81;4966155;28;20440;-73
2022/09/04 08:34:26;;;;;;;3.10;2.80;;;;;;;30.11;38.00;99744.97;4964529;28;20677;-73
2022/09/04 08:37:26;;;;;;;6.83;3.17;;;;;;;30.15;37.62;99742.66;4971127;28;20471;-73
2022/09/04 08:40:10;;;;;;;3.30;2.00;;;;;;;30.25;37.76;99736.75;4968399;28;20583;-74
2022/09/04 08:43:11;;;;;;;3.10;2.40;;;;;;;30.07;37.84;99751.06;4960408;28;20435;-73
2022/09/04 08:46:00;;;;;;;3.10;2.80;;;;;;;30.10;38.01;99745.19;4972091;28;20446;-73
2022/09/04 08:49:10;;;;;;;2.30;2.10;;;;;;;29.94;38.50;99749.28;4960060;28;20443;-74
2022/09/04 08:52:00;;;;;;;5.03;2.73;;;;;;;29.84;38.51;99749.78;4969693;28;20530;-76
2022/09/04 08:54:30;;;;;;;3.97;2.77;;;;;;;29.74;38.64;99742.13;4968274;28;20451;-73
2022/09/04 08:57:13;;;;;;;2.10;1.90;;;;;;;29.75;38.67;99749.19;4972929;28;20475;-75
2022/09/04 09:00:05;;;;;;;2.67;2.47;;;;;;;29.71;38.52;99742.59;4971555;28;20843;-73
2022/09/04 09:03:04;;;;;;;2.33;2.13;;;;;;;29.36;39.40;99744.88;4968596;28;20439;-74
2022/09/04 09:06:05;;;;;;;2.80;2.33;;;;;;;29.01;39.91;99747.09;4957662;28;21047;-74
2022/09/04 09:08:39;;;;;;;2.30;2.10;;;;;;;28.80;40.20;99757.13;4968710;28;20446;-74
2022/09/04 09:11:28;;;;;;;2.20;2.03;;;;;;;28.47;40.88;99749.13;4971476;28;20889;-73
2022/09/04 09:14:14;;;;;;;2.63;2.43;;;;;;;28.26;41.50;99744.75;4977062;28;20435;-74
2022/09/04 09:16:56;;;;;;;3.20;2.27;;;;;;;28.20;41.67;99751.81;4970860;28;20509;-74
2022/09/04 09:19:44;;;;;;;2.30;2.10;;;;;;;28.07;41.48;99757.22;4970712;28;20445;-74
2022/09/04 09:22:30;;;;;;;2.43;2.23;;;;;;;27.92;41.98;99752.03;4964901;28;20971;-75
2022/09/04 09:25:34;;;;;;;2.60;1.97;;;;;;;27.90;42.20;99751.41;4967547;28;20468;-75
2022/09/04 09:28:38;;;;;;;2.80;2.10;;;;;;;27.91;42.33;99755.75;4973198;28;20433;-74
2022/09/04 09:31:41;;;;;;;2.20;2.00;;;;;;;27.89;42.27;99752.44;4976516;28;20530;-77
2022/09/04 09:34:29;;;;;;;2.10;2.00;;;;;;;27.80;42.78;99751.00;4970774;28;21037;-75
2022/09/04 09:37:32;;;;;;;3.60;2.23;;;;;;;27.81;42.41;99744.53;4967593;28;20504;-75
2022/09/04 09:40:27;;;;;;;2.03;1.83;;;;;;;27.79;42.23;99747.44;4979535;28;20481;-75
2022/09/04 09:43:21;;;;;;;2.60;2.20;;;;;;;27.82;42.46;99743.53;4963523;28;20528;-75
2022/09/04 09:45:59;;;;;;;2.43;2.10;;;;;;;27.93;42.27;99739.38;4970099;28;20464;-75
2022/09/04 09:48:34;;;;;;;2.57;2.27;;;;;;;28.09;42.03;99733.56;4968608;28;20475;-75
2022/09/04 09:51:35;;;;;;;3.10;1.87;;;;;;;28.24;41.56;99733.31;4970608;28;20503;-75
2022/09/04 09:54:22;;;;;;;3.10;1.57;;;;;;;28.40;41.49;99732.88;4970913;28;20988;-75
2022/09/04 09:57:22;;;;;;;1.67;1.53;;;;;;;28.40;41.10;99730.16;4966228;28;20473;-75
2022/09/04 10:00:11;;;;;;;2.97;1.67;;;;;;;28.47;41.11;99729.38;4969710;28;20423;-75
2022/09/04 10:03:01;;;;;;;3.55;1.75;;;;;;;28.61;40.95;99731.00;4971373;28;20996;-75
2022/09/04 10:06:00;;;;;;;2.30;1.83;;;;;;;28.63;41.19;99723.50;4971817;28;20241;-76
2022/09/04 10:08:47;;;;;;;2.27;2.00;;;;;;;28.64;41.40;99727.88;4969532;28;20958;-75
2022/09/04 10:11:39;;;;;;;2.70;2.50;;;;;;;28.79;41.25;99727.63;4968373;28;21012;-75
2022/09/04 10:14:19;;;;;;;2.03;1.83;;;;;;;28.78;41.13;99726.78;4971045;28;20486;-75
2022/09/04 10:16:51;;;;;;;2.30;2.17;;;;;;;28.79;40.90;99723.03;4972982;28;20543;-76
2022/09/04 10:19:26;;;;;;;2.90;2.00;;;;;;;28.80;40.77;99723.88;4968549;28;20496;-74
2022/09/04 10:22:16;;;;;;;2.33;2.13;;;;;;;28.96;40.66;99719.84;4961876;28;20479;-75
2022/09/04 10:25:01;;;;;;;2.93;2.23;;;;;;;28.98;40.43;99715.06;4972415;28;20456;-74
2022/09/04 10:27:43;;;;;;;2.80;2.40;;;;;;;29.02;40.10;99717.09;4960228;28;20454;-75
2022/09/04 10:30:18;;;;;;;1.60;1.50;;;;;;;29.18;39.57;99715.81;4967184;28;20944;-75
2022/09/04 10:33:03;;;;;;;2.10;1.90;;;;;;;29.31;39.34;99726.56;4970271;28;20933;-76
2022/09/04 10:36:03;;;;;;;1.80;1.70;;;;;;;29.31;38.39;99721.16;4969353;28;20932;-75
2022/09/04 10:40:34;;;;;;;1.77;1.50;;;;;;;29.38;37.70;99717.56;4968322;28;20467;-75
2022/09/04 10:41:48;;;;;;;2.07;1.87;;;;;;;29.36;37.59;99719.69;4967004;28;20973;-75
2022/09/04 10:44:35;;;;;;;1.60;1.50;;;;;;;29.37;37.32;99722.16;4950962;28;20497;-74
2022/09/04 10:47:19;;;;;;;2.30;1.77;;;;;;;29.45;36.93;99715.66;4939789;28;20713;-76
2022/09/04 10:50:03;;;;;;;1.57;1.47;;;;;;;29.61;35.88;99706.19;4941976;28;20476;-75
2022/09/04 10:53:00;;;;;;;3.80;1.77;;;;;;;29.62;35.52;99705.94;4941814;28;20923;-76
2022/09/04 10:55:36;;;;;;;1.40;1.30;;;;;;;29.68;34.84;99705.13;4938176;28;20505;-76
2022/09/04 10:58:26;;;;;;;1.67;1.53;;;;;;;29.77;32.92;99701.09;4932322;28;20492;-76
2022/09/04 11:01:10;;;;;;;1.30;1.20;;;;;;;29.82;31.76;99695.00;4937318;28;21188;-76
2022/09/04 11:04:12;;;;;;;1.73;1.40;;;;;;;29.92;29.53;99687.22;4918433;29;20564;-76
2022/09/04 11:07:00;;;;;;;1.93;1.83;;;;;;;29.92;29.24;99689.06;4902321;29;20471;-75
2022/09/04 11:09:47;;;;;;;1.57;1.47;;;;;;;30.07;29.63;99700.41;4894610;29;21137;-76
2022/09/04 11:12:37;;;;;;;2.13;1.47;;;;;;;30.09;28.62;99698.31;4898753;29;21282;-75
2022/09/04 11:15:22;;;;;;;1.43;1.30;;;;;;;29.92;28.75;99697.19;4900127;29;20530;-76
2022/09/04 11:18:11;;;;;;;3.20;1.60;;;;;;;29.83;29.37;99698.53;4897763;29;21023;-76
2022/09/04 11:20:56;;;;;;;1.43;1.20;;;;;;;29.78;29.62;99699.19;4898983;29;20471;-76
2022/09/04 11:23:44;;;;;;;1.70;1.30;;;;;;;29.78;29.63;99697.31;4899424;29;20499;-76
2022/09/04 11:26:28;;;;;;;2.20;1.30;;;;;;;29.75;29.60;99692.34;4897331;29;20472;-75
2022/09/04 11:29:00;;;;;;;1.20;1.10;;;;;;;29.76;29.34;99694.03;4893887;29;20459;-77
2022/09/04 11:31:55;;;;;;;1.40;0.97;;;;;;;29.75;29.19;99689.63;4903258;29;20463;-76
2022/09/04 11:34:59;;;;;;;1.45;1.00;;;;;;;29.74;29.26;99690.69;4737105;29;5003811;-76
2022/09/04 11:37:57;;;;;;;1.30;1.20;;;;;;;29.73;28.88;99688.19;4862567;29;20737;-76
2022/09/04 11:41:27;;;;;;;1.40;1.30;;;;;;;29.70;28.49;99691.34;4896399;29;20468;-76
2022/09/04 11:44:18;;;;;;;1.67;1.50;;;;;;;29.63;28.38;99683.25;4875200;29;20464;-76
2022/09/04 11:47:14;;;;;;;2.03;1.20;;;;;;;29.58;28.92;99687.69;4900228;29;20995;-75
2022/09/04 11:50:13;;;;;;;1.60;1.50;;;;;;;29.29;28.48;99690.78;4900034;29;20769;-76
2022/09/04 11:53:16;;;;;;;1.97;1.60;;;;;;;29.23;28.94;99683.53;4892170;29;20546;-74
2022/09/04 11:55:54;;;;;;;2.40;1.50;;;;;;;29.15;29.23;99693.78;4899132;29;20497;-77
2022/09/04 11:58:57;;;;;;;1.53;1.30;;;;;;;29.18;29.12;99674.41;4904307;29;20460;-76
2022/09/04 12:01:45;;;;;;;1.87;1.20;;;;;;;29.13;28.43;99680.47;4899320;29;20446;-75
2022/09/04 12:04:39;;;;;;;1.50;1.20;;;;;;;29.10;28.44;99684.44;4901659;28;21175;-76
2022/09/04 12:07:23;;;;;;;1.70;1.60;;;;;;;29.17;28.21;99668.19;4939023;28;20477;-75
2022/09/04 12:10:18;;;;;;;3.63;1.80;;;;;;;29.18;28.64;99677.13;4938392;29;20446;-75
2022/09/04 12:13:00;;;;;;;1.97;1.50;;;;;;;29.16;28.42;99685.44;4936653;28;20520;-76
2022/09/04 12:15:34;;;;;;;6.13;3.70;;;;;;;29.15;28.28;99693.78;4941590;28;20491;-76
2022/09/04 12:18:30;;;;;;;2.03;1.50;;;;;;;29.06;28.58;99691.34;4942683;28;20961;-75
2022/09/04 12:21:18;;;;;;;1.40;1.10;;;;;;;29.07;28.96;99692.97;4940833;28;20484;-75
2022/09/04 12:24:24;;;;;;;1.57;1.47;;;;;;;29.05;28.77;99689.66;4940727;28;21126;-76
2022/09/04 12:27:23;;;;;;;1.67;1.50;;;;;;;29.02;28.39;99695.47;4942276;28;20484;-76
2022/09/04 12:29:57;;;;;;;1.93;1.07;;;;;;;29.01;28.68;99695.72;4940010;28;20493;-75
2022/09/04 12:33:00;;;;;;;1.60;1.50;;;;;;;29.01;28.67;99687.59;4937941;28;20510;-75
2022/09/04 12:35:38;;;;;;;1.70;1.60;;;;;;;29.02;28.78;99684.66;4942460;28;22550;-75
2022/09/04 12:38:09;;;;;;;1.93;1.40;;;;;;;29.07;28.70;99692.16;4945668;29;20582;-76
2022/09/04 12:41:16;;;;;;;1.37;1.27;;;;;;;29.12;28.60;99697.75;4943960;28;20759;-76
2022/09/04 12:43:47;;;;;;;1.60;1.43;;;;;;;29.14;28.55;99692.97;4942514;28;20978;-76
2022/09/04 12:46:36;;;;;;;1.60;1.30;;;;;;;29.13;27.57;99691.28;4944919;28;21202;-76
2022/09/04 12:49:24;;;;;;;1.20;1.10;;;;;;;29.11;27.42;99688.81;4946849;28;20484;-75
2022/09/04 12:52:10;;;;;;;1.60;1.50;;;;;;;29.15;27.32;99693.78;4946129;28;20462;-76
2022/09/04 12:54:42;;;;;;;1.43;1.20;;;;;;;29.18;27.55;99687.94;4945486;28;20481;-75
2022/09/04 12:57:21;;;;;;;1.53;1.33;;;;;;;29.24;27.60;99681.66;4945007;28;20545;-75
2022/09/04 13:00:09;;;;;;;2.97;1.27;;;;;;;29.31;27.25;99685.97;4945500;28;20562;-75
2022/09/04 13:02:50;;;;;;;1.30;1.20;;;;;;;29.35;26.82;99678.25;4945293;28;20593;-76